createdAt,value
2023-02-21T00:02:03.788Z,80.49
2023-02-21T00:07:52.801Z,80.43
2023-02-21T00:10:40.743Z,80.42
2023-02-21T00:13:27.854Z,80.41
2023-02-21T00:16:15.351Z,80.63
2023-02-21T00:19:02.189Z,80.32
2023-02-21T00:21:49.280Z,80.33
2023-02-21T00:24:37.562Z,80.28
2023-02-21T00:27:25.153Z,80.15
2023-02-21T00:30:12.206Z,80.14
2023-02-21T00:33:05.359Z,80.17
2023-02-21T00:35:54.076Z,80.02
2023-02-21T00:38:40.987Z,80.04
2023-02-21T00:41:28.404Z,80.12
2023-02-21T00:44:15.498Z,80.06
2023-02-21T00:47:03.303Z,80.01
2023-02-21T00:49:50.062Z,80.03
2023-02-21T00:52:36.971Z,80.14
2023-02-21T00:55:23.887Z,80.11
2023-02-21T00:58:10.797Z,80.19
2023-02-21T01:00:57.694Z,79.86
2023-02-21T01:03:44.530Z,79.69
2023-02-21T01:06:31.820Z,79.63
2023-02-21T01:09:18.775Z,79.48
2023-02-21T01:12:06.192Z,79.49
2023-02-21T01:14:53.082Z,79.59
2023-02-21T01:17:40.483Z,79.59
2023-02-21T01:20:27.890Z,79.16
2023-02-21T01:23:14.768Z,79.44
2023-02-21T01:26:01.522Z,79.14
2023-02-21T01:28:51.497Z,79.02
2023-02-21T01:31:38.257Z,79.19
2023-02-21T01:34:25.554Z,79.51
2023-02-21T01:37:12.310Z,79.24
2023-02-21T01:39:59.328Z,79.47
2023-02-21T01:42:48.863Z,79.15
2023-02-21T01:45:41.871Z,79.35
2023-02-21T01:48:37.972Z,79.14
2023-02-21T01:51:27.623Z,79.23
2023-02-21T01:54:14.776Z,79.05
2023-02-21T01:57:02.069Z,79.24
2023-02-21T01:59:49.013Z,79.16
2023-02-21T02:02:59.079Z,79.25
2023-02-21T02:05:47.355Z,79.36
2023-02-21T02:08:40.208Z,79.15
2023-02-21T02:11:39.111Z,79.50
2023-02-21T02:14:28.990Z,79.36
2023-02-21T02:17:00.664Z,79.59
2023-02-21T02:19:47.777Z,79.70
2023-02-21T02:22:39.308Z,79.71
2023-02-21T02:25:15.285Z,79.30
2023-02-21T02:27:52.355Z,79.63
2023-02-21T02:30:30.979Z,79.56
2023-02-21T02:33:15.541Z,79.43
2023-02-21T02:36:14.742Z,79.75
2023-02-21T02:39:03.281Z,79.41
2023-02-21T02:41:43.674Z,79.42
2023-02-21T02:44:11.835Z,79.25
2023-02-21T02:46:44.017Z,79.44
2023-02-21T02:49:25.486Z,79.60
2023-02-21T02:51:53.842Z,79.80
2023-02-21T02:54:22.312Z,79.42
2023-02-21T02:56:50.570Z,79.34
2023-02-21T02:59:29.290Z,79.49
2023-02-21T03:02:24.020Z,79.63
2023-02-21T03:05:14.169Z,79.44
2023-02-21T03:08:04.938Z,79.55
2023-02-21T03:10:56.051Z,79.65
2023-02-21T03:14:19.831Z,79.39
2023-02-21T03:16:53.237Z,79.20
2023-02-21T03:19:26.761Z,79.33
2023-02-21T03:22:11.184Z,79.27
2023-02-21T03:24:42.873Z,79.38
2023-02-21T03:27:12.666Z,79.09
2023-02-21T03:29:41.750Z,79.32
2023-02-21T03:32:17.194Z,79.61
2023-02-21T03:34:45.456Z,79.22
2023-02-21T03:37:21.693Z,79.19
2023-02-21T03:39:49.815Z,78.99
2023-02-21T03:42:17.910Z,79.19
2023-02-21T03:44:45.915Z,79.25
2023-02-21T03:47:14.107Z,79.31
2023-02-21T03:49:42.132Z,79.41
2023-02-21T03:52:12.936Z,79.62
2023-02-21T03:54:41.488Z,79.34
2023-02-21T03:57:09.580Z,78.92
2023-02-21T03:59:37.662Z,79.09
2023-02-21T04:02:06.120Z,79.48
2023-02-21T04:04:35.028Z,79.10
2023-02-21T04:07:03.158Z,79.41
2023-02-21T04:09:31.285Z,79.04
2023-02-21T04:11:59.341Z,79.25
2023-02-21T04:14:27.393Z,79.12
2023-02-21T04:16:55.506Z,79.47
2023-02-21T04:19:23.565Z,79.05
2023-02-21T04:21:51.712Z,79.37
2023-02-21T04:24:20.333Z,79.07
2023-02-21T04:26:48.364Z,79.09
2023-02-21T04:29:16.485Z,79.41
2023-02-21T04:31:44.651Z,79.24
2023-02-21T04:34:12.760Z,78.91
2023-02-21T04:36:40.896Z,79.02
2023-02-21T04:39:09.442Z,79.30
2023-02-21T04:41:37.628Z,79.11
2023-02-21T04:44:06.498Z,79.10
2023-02-21T04:46:35.068Z,79.31
2023-02-21T04:49:03.336Z,78.73
2023-02-21T04:51:31.435Z,78.73
2023-02-21T04:54:00.367Z,78.91
2023-02-21T04:56:29.281Z,78.82
2023-02-21T04:58:57.773Z,78.61
2023-02-21T05:01:31.619Z,78.72
2023-02-21T05:04:00.653Z,78.46
2023-02-21T05:06:30.578Z,78.65
2023-02-21T05:08:59.408Z,78.77
2023-02-21T05:11:28.340Z,78.53
2023-02-21T05:13:56.637Z,78.68
2023-02-21T05:16:24.647Z,78.33
2023-02-21T05:18:52.791Z,78.41
2023-02-21T05:21:21.016Z,78.31
2023-02-21T05:23:58.067Z,78.03
2023-02-21T05:26:31.540Z,78.21
2023-02-21T05:29:00.386Z,78.35
2023-02-21T05:31:28.994Z,78.02
2023-02-21T05:33:57.859Z,78.61
2023-02-21T05:36:26.303Z,78.56
2023-02-21T05:38:55.987Z,78.44
2023-02-21T05:41:24.690Z,78.45
2023-02-21T05:43:53.393Z,78.24
2023-02-21T05:46:28.943Z,78.38
2023-02-21T05:48:58.625Z,78.46
2023-02-21T05:51:27.589Z,77.91
2023-02-21T05:53:55.664Z,78.30
2023-02-21T05:56:23.832Z,78.32
2023-02-21T05:58:51.952Z,78.42
2023-02-21T06:01:20.029Z,78.78
2023-02-21T06:03:48.243Z,78.30
2023-02-21T06:06:17.073Z,78.47
2023-02-21T06:08:47.603Z,78.51
2023-02-21T06:11:22.709Z,78.49
2023-02-21T06:13:52.593Z,78.32
2023-02-21T06:16:21.297Z,78.43
2023-02-21T06:18:54.561Z,78.27
2023-02-21T06:21:23.350Z,78.21
2023-02-21T06:23:51.642Z,78.58
2023-02-21T06:26:20.833Z,78.43
2023-02-21T06:28:49.579Z,78.50
2023-02-21T06:31:19.319Z,78.15
2023-02-21T06:33:49.390Z,77.74
2023-02-21T06:36:21.372Z,78.14
2023-02-21T06:38:51.463Z,78.28
2023-02-21T06:41:24.650Z,78.00
2023-02-21T06:43:57.417Z,77.93
2023-02-21T06:46:28.274Z,78.13
2023-02-21T06:48:56.427Z,77.94
2023-02-21T06:51:29.589Z,78.29
2023-02-21T06:53:58.739Z,77.93
2023-02-21T06:56:27.376Z,77.93
2023-02-21T06:58:55.829Z,78.20
2023-02-21T07:01:28.224Z,78.23
2023-02-21T07:03:58.493Z,78.09
2023-02-21T07:06:29.554Z,78.23
2023-02-21T07:08:57.966Z,78.41
2023-02-21T07:11:26.140Z,78.21
2023-02-21T07:13:56.901Z,78.28
2023-02-21T07:16:25.979Z,78.17
2023-02-21T07:18:54.634Z,78.32
2023-02-21T07:21:23.094Z,77.83
2023-02-21T07:23:51.177Z,77.88
2023-02-21T07:26:19.865Z,78.21
2023-02-21T07:28:49.350Z,78.06
2023-02-21T07:31:19.653Z,78.24
2023-02-21T07:33:48.176Z,77.89
2023-02-21T07:36:16.363Z,77.86
2023-02-21T07:38:44.400Z,78.19
2023-02-21T07:41:15.824Z,78.22
2023-02-21T07:43:44.972Z,78.17
2023-02-21T07:46:15.085Z,78.23
2023-02-21T07:48:43.175Z,77.95
2023-02-21T07:51:11.255Z,78.13
2023-02-21T07:53:40.564Z,78.11
2023-02-21T07:56:08.595Z,78.32
2023-02-21T07:58:37.595Z,78.20
2023-02-21T08:01:06.891Z,77.99
2023-02-21T08:03:35.890Z,77.67
2023-02-21T08:06:04.394Z,77.89
2023-02-21T08:08:32.480Z,77.62
2023-02-21T08:11:00.623Z,77.75
2023-02-21T08:13:28.690Z,78.03
2023-02-21T08:15:56.877Z,77.89
2023-02-21T08:18:25.385Z,77.68
2023-02-21T08:20:55.578Z,78.16
2023-02-21T08:23:24.778Z,78.16
2023-02-21T08:25:52.817Z,78.07
2023-02-21T08:28:20.854Z,77.96
2023-02-21T08:30:48.970Z,78.01
2023-02-21T08:33:17.020Z,78.01
2023-02-21T08:35:45.063Z,78.01
2023-02-21T08:38:13.166Z,78.18
2023-02-21T08:40:41.256Z,77.89
2023-02-21T08:43:09.401Z,78.06
2023-02-21T08:45:38.164Z,77.85
2023-02-21T08:48:06.322Z,77.98
2023-02-21T08:50:34.355Z,77.78
2023-02-21T08:53:02.563Z,78.20
2023-02-21T08:55:30.627Z,77.97
2023-02-21T08:57:58.854Z,77.79
2023-02-21T09:00:30.368Z,77.64
2023-02-21T09:03:00.114Z,77.67
2023-02-21T09:05:30.024Z,77.75
2023-02-21T09:08:01.845Z,77.89
2023-02-21T09:10:34.144Z,78.16
2023-02-21T09:13:03.427Z,77.95
2023-02-21T09:15:32.161Z,78.02
2023-02-21T09:18:01.129Z,77.62
2023-02-21T09:20:29.250Z,77.69
2023-02-21T09:22:57.359Z,77.67
2023-02-21T09:25:26.113Z,77.77
2023-02-21T09:27:55.058Z,77.65
2023-02-21T09:30:26.954Z,77.70
2023-02-21T09:32:56.916Z,77.75
2023-02-21T09:35:25.089Z,77.37
2023-02-21T09:37:53.293Z,77.58
2023-02-21T09:40:24.564Z,77.76
2023-02-21T09:42:55.112Z,77.56
2023-02-21T09:45:25.155Z,77.85
2023-02-21T09:47:57.108Z,77.56
2023-02-21T09:50:33.900Z,77.46
2023-02-21T09:53:02.269Z,77.28
2023-02-21T09:55:35.845Z,77.19
2023-02-21T09:58:04.176Z,77.40
2023-02-21T10:00:37.748Z,77.21
2023-02-21T10:03:05.849Z,77.32
2023-02-21T10:05:48.510Z,77.62
2023-02-21T10:08:16.576Z,77.37
2023-02-21T10:10:52.590Z,77.29
2023-02-21T10:14:04.436Z,77.27
2023-02-21T10:16:40.577Z,77.05
2023-02-21T10:19:19.545Z,77.21
2023-02-21T10:21:49.469Z,76.81
2023-02-21T10:24:22.254Z,77.03
2023-02-21T10:27:15.987Z,76.89
2023-02-21T10:29:59.600Z,77.03
2023-02-21T10:32:28.736Z,77.08
2023-02-21T10:34:58.781Z,77.12
2023-02-21T10:37:33.595Z,76.77
2023-02-21T10:40:09.185Z,76.92
2023-02-21T10:42:51.863Z,76.70
2023-02-21T10:45:23.542Z,76.89
2023-02-21T10:48:03.388Z,77.14
2023-02-21T10:50:43.960Z,76.99
2023-02-21T10:53:42.456Z,76.82
2023-02-21T10:56:22.544Z,76.95
2023-02-21T10:58:56.082Z,76.95
2023-02-21T11:01:26.968Z,76.99
2023-02-21T11:03:59.168Z,76.82
2023-02-21T11:06:36.069Z,76.76
2023-02-21T11:09:30.862Z,76.98
2023-02-21T11:12:25.936Z,76.82
2023-02-21T11:14:54.059Z,77.09
2023-02-21T11:17:28.625Z,77.05
2023-02-21T11:20:07.392Z,77.04
2023-02-21T11:22:42.870Z,76.75
2023-02-21T11:25:38.549Z,76.69
2023-02-21T11:28:09.840Z,76.48
2023-02-21T11:30:44.221Z,76.51
2023-02-21T11:33:12.559Z,76.17
2023-02-21T11:35:49.707Z,76.32
2023-02-21T11:38:43.637Z,76.47
2023-02-21T11:41:20.784Z,76.59
2023-02-21T11:43:53.834Z,76.32
2023-02-21T11:46:46.785Z,76.38
2023-02-21T11:49:14.993Z,76.42
2023-02-21T11:51:48.451Z,76.28
2023-02-21T11:54:26.179Z,76.18
2023-02-21T11:57:14.685Z,76.18
2023-02-21T12:00:17.516Z,76.08
2023-02-21T12:02:58.742Z,76.43
2023-02-21T12:05:54.076Z,76.17
2023-02-21T12:08:39.685Z,76.11
2023-02-21T12:11:33.702Z,76.03
2023-02-21T12:14:48.187Z,76.03
2023-02-21T12:20:56.335Z,76.13
2023-02-21T12:23:39.695Z,76.02
2023-02-21T12:26:22.474Z,75.96
2023-02-21T12:29:48.492Z,75.87
2023-02-21T12:32:50.365Z,75.88
2023-02-21T12:35:58.983Z,76.02
2023-02-21T12:39:22.507Z,75.53
2023-02-21T12:42:38.298Z,75.64
2023-02-21T12:46:35.673Z,75.94
2023-02-21T12:49:18.232Z,76.00
2023-02-21T12:52:16.870Z,75.59
2023-02-21T12:55:09.826Z,75.68
2023-02-21T12:57:52.401Z,75.69
2023-02-21T13:00:42.699Z,75.89
2023-02-21T13:03:34.559Z,75.80
2023-02-21T13:07:11.131Z,76.04
2023-02-21T13:10:31.774Z,75.92
2023-02-21T13:16:59.313Z,75.70
2023-02-21T13:19:48.509Z,75.61
2023-02-21T13:22:42.694Z,75.87
2023-02-21T13:25:29.992Z,75.54
2023-02-21T13:28:11.218Z,75.56
2023-02-21T13:30:44.036Z,75.68
2023-02-21T13:33:39.172Z,75.49
2023-02-21T13:36:28.628Z,75.55
2023-02-21T13:39:08.638Z,75.53
2023-02-21T13:42:01.262Z,75.51
2023-02-21T13:44:37.639Z,75.33
2023-02-21T13:47:14.125Z,75.53
2023-02-21T13:49:44.445Z,75.44
2023-02-21T13:52:24.520Z,75.50
2023-02-21T13:55:21.340Z,75.36
2023-02-21T13:57:57.646Z,75.45
2023-02-21T14:00:25.758Z,75.34
2023-02-21T14:03:18.320Z,75.51
2023-02-21T14:05:47.440Z,75.38
2023-02-21T14:08:32.011Z,75.36
2023-02-21T14:11:06.316Z,75.44
2023-02-21T14:13:49.127Z,75.17
2023-02-21T14:16:19.304Z,75.29
2023-02-21T14:19:02.278Z,75.32
2023-02-21T14:21:37.512Z,75.26
2023-02-21T14:24:14.613Z,75.37
2023-02-21T14:26:56.966Z,74.95
2023-02-21T14:29:33.991Z,75.51
2023-02-21T14:32:02.731Z,75.35
2023-02-21T14:34:34.106Z,75.33
2023-02-21T14:37:26.853Z,75.31
2023-02-21T14:40:10.926Z,75.34
2023-02-21T14:42:54.527Z,75.11
2023-02-21T14:45:56.671Z,75.44
2023-02-21T14:48:43.408Z,75.21
2023-02-21T14:51:33.738Z,75.46
2023-02-21T14:54:31.823Z,75.30
2023-02-21T14:57:34.997Z,75.12
2023-02-21T15:00:12.225Z,75.30
2023-02-21T15:03:12.914Z,75.30
2023-02-21T15:05:50.282Z,75.31
2023-02-21T15:08:19.910Z,75.26
2023-02-21T15:10:49.628Z,74.99
2023-02-21T15:13:34.145Z,74.89
2023-02-21T15:16:12.640Z,74.87
2023-02-21T15:18:56.927Z,75.23
2023-02-21T15:21:25.118Z,75.25
2023-02-21T15:24:03.337Z,75.26
2023-02-21T15:26:32.470Z,75.12
2023-02-21T15:29:08.116Z,75.34
2023-02-21T15:31:53.425Z,75.28
2023-02-21T15:34:35.104Z,75.15
2023-02-21T15:37:17.420Z,75.33
2023-02-21T15:39:55.922Z,75.31
2023-02-21T15:42:26.003Z,75.40
2023-02-21T15:45:05.668Z,75.29
2023-02-21T15:47:36.214Z,75.39
2023-02-21T15:50:04.629Z,74.99
2023-02-21T15:52:39.918Z,75.20
2023-02-21T15:55:20.486Z,75.38
2023-02-21T15:57:57.899Z,75.48
2023-02-21T16:00:35.488Z,75.19
2023-02-21T16:03:47.166Z,74.84
2023-02-21T16:06:32.133Z,75.01
2023-02-21T16:09:15.234Z,75.08
2023-02-21T16:11:43.279Z,75.43
2023-02-21T16:14:21.041Z,75.44
2023-02-21T16:16:54.148Z,74.98
2023-02-21T16:19:24.023Z,75.36
2023-02-21T16:22:27.516Z,75.56
2023-02-21T16:25:28.058Z,75.45
2023-02-21T16:28:01.784Z,75.61
2023-02-21T16:30:32.139Z,75.57
2023-02-21T16:33:03.712Z,75.46
2023-02-21T16:35:33.210Z,75.60
2023-02-21T16:38:01.926Z,75.53
2023-02-21T16:40:35.131Z,75.69
2023-02-21T16:43:05.278Z,75.45
2023-02-21T16:45:33.971Z,75.58
2023-02-21T16:48:05.401Z,75.39
2023-02-21T16:50:39.203Z,75.49
2023-02-21T16:53:12.712Z,75.58
2023-02-21T16:55:42.895Z,75.76
2023-02-21T16:58:26.181Z,75.65
2023-02-21T17:00:58.790Z,75.76
2023-02-21T17:03:28.768Z,75.57
2023-02-21T17:05:59.044Z,75.66
2023-02-21T17:08:28.924Z,75.80
2023-02-21T17:10:57.641Z,75.72
2023-02-21T17:13:26.114Z,75.58
2023-02-21T17:15:54.881Z,75.60
2023-02-21T17:18:23.330Z,75.72
2023-02-21T17:20:51.619Z,75.90
2023-02-21T17:23:19.864Z,75.98
2023-02-21T17:25:48.091Z,75.82
2023-02-21T17:28:16.262Z,75.71
2023-02-21T17:30:44.681Z,75.83
2023-02-21T17:33:12.792Z,75.77
2023-02-21T17:35:41.607Z,75.81
2023-02-21T17:38:09.814Z,75.94
2023-02-21T17:40:38.065Z,76.12
2023-02-21T17:43:09.040Z,75.94
2023-02-21T17:45:37.899Z,76.17
2023-02-21T17:48:06.518Z,76.00
2023-02-21T17:50:34.621Z,75.99
2023-02-21T17:53:02.917Z,75.89
2023-02-21T17:55:32.417Z,75.99
2023-02-21T17:58:02.180Z,75.77
2023-02-21T18:00:35.054Z,75.80
2023-02-21T18:03:04.513Z,76.13
2023-02-21T18:05:33.436Z,76.05
2023-02-21T18:08:01.522Z,75.94
2023-02-21T18:10:30.131Z,75.89
2023-02-21T18:12:58.486Z,75.95
2023-02-21T18:15:29.977Z,75.79
2023-02-21T18:18:05.299Z,75.85
2023-02-21T18:20:35.533Z,75.91
2023-02-21T18:23:06.634Z,75.81
2023-02-21T18:25:35.942Z,75.77
2023-02-21T18:28:05.180Z,75.74
2023-02-21T18:30:33.563Z,75.82
2023-02-21T18:33:02.167Z,75.80
2023-02-21T18:35:30.339Z,76.01
2023-02-21T18:37:58.545Z,75.61
2023-02-21T18:40:34.397Z,75.89
2023-02-21T18:43:03.616Z,75.85
2023-02-21T18:45:34.410Z,75.58
2023-02-21T18:48:04.315Z,75.67
2023-02-21T18:50:33.110Z,75.52
2023-02-21T18:53:02.780Z,75.95
2023-02-21T18:55:33.051Z,75.86
2023-02-21T18:58:02.090Z,75.71
2023-02-21T19:00:34.003Z,75.64
2023-02-21T19:03:07.936Z,75.76
2023-02-21T19:05:37.985Z,75.97
2023-02-21T19:08:07.074Z,75.98
2023-02-21T19:10:37.537Z,75.64
2023-02-21T19:13:07.136Z,75.93
2023-02-21T19:15:37.021Z,75.53
2023-02-21T19:18:06.560Z,75.53
2023-02-21T19:20:34.845Z,75.59
2023-02-21T19:23:02.949Z,76.20
2023-02-21T19:25:31.243Z,75.58
2023-02-21T19:28:02.515Z,76.06
2023-02-21T19:30:34.515Z,75.76
2023-02-21T19:33:08.301Z,76.26
2023-02-21T19:35:37.812Z,76.04
2023-02-21T19:38:08.492Z,75.87
2023-02-21T19:40:37.239Z,76.01
2023-02-21T19:43:06.598Z,75.78
2023-02-21T19:45:34.807Z,76.00
2023-02-21T19:48:03.024Z,76.27
2023-02-21T19:50:31.233Z,75.95
2023-02-21T19:52:59.615Z,76.26
2023-02-21T19:55:29.452Z,76.06
2023-02-21T19:57:57.636Z,75.99
2023-02-21T20:00:27.408Z,76.14
2023-02-21T20:02:55.637Z,76.30
2023-02-21T20:05:23.812Z,76.70
2023-02-21T20:07:51.934Z,76.18
2023-02-21T20:10:27.373Z,76.71
2023-02-21T20:12:56.944Z,76.31
2023-02-21T20:15:25.350Z,76.66
2023-02-21T20:17:55.498Z,76.65
2023-02-21T20:20:23.539Z,76.53
2023-02-21T20:22:51.649Z,76.43
2023-02-21T20:25:21.412Z,76.65
2023-02-21T20:27:49.530Z,76.79
2023-02-21T20:30:18.014Z,76.64
2023-02-21T20:32:46.449Z,76.49
2023-02-21T20:35:17.126Z,76.29
2023-02-21T20:37:48.034Z,76.43
2023-02-21T20:40:19.353Z,76.62
2023-02-21T20:42:49.022Z,76.44
2023-02-21T20:45:18.693Z,76.59
2023-02-21T20:47:46.922Z,76.72
2023-02-21T20:50:20.568Z,76.92
2023-02-21T20:52:51.449Z,77.07
2023-02-21T20:55:22.493Z,77.53
2023-02-21T20:57:50.840Z,77.38
2023-02-21T21:00:23.713Z,77.20
2023-02-21T21:02:53.271Z,77.20
2023-02-21T21:05:21.776Z,77.16
2023-02-21T21:07:49.938Z,77.50
2023-02-21T21:10:19.226Z,77.32
2023-02-21T21:12:49.676Z,77.57
2023-02-21T21:15:20.091Z,77.27
2023-02-21T21:17:48.529Z,77.04
2023-02-21T21:20:22.232Z,77.67
2023-02-21T21:22:50.894Z,77.55
2023-02-21T21:25:19.121Z,77.42
2023-02-21T21:27:48.892Z,77.45
2023-02-21T21:30:22.766Z,77.49
2023-02-21T21:32:51.346Z,77.39
2023-02-21T21:35:20.505Z,77.31
2023-02-21T21:37:49.781Z,77.62
2023-02-21T21:40:18.120Z,77.68
2023-02-21T21:42:50.304Z,77.08
2023-02-21T21:45:22.148Z,76.91
2023-02-21T21:47:54.416Z,77.03
2023-02-21T21:50:22.627Z,77.27
2023-02-21T21:52:55.329Z,77.05
2023-02-21T21:55:26.523Z,77.25
2023-02-21T21:57:56.051Z,77.35
2023-02-21T22:00:26.495Z,76.89
2023-02-21T22:02:57.579Z,76.89
2023-02-21T22:05:32.271Z,77.05
2023-02-21T22:08:00.487Z,77.43
2023-02-21T22:10:29.330Z,76.85
2023-02-21T22:13:00.571Z,76.79
2023-02-21T22:15:29.650Z,77.07
2023-02-21T22:18:02.103Z,76.86
2023-02-21T22:20:31.388Z,76.50
2023-02-21T22:22:59.859Z,76.98
2023-02-21T22:25:30.826Z,77.21
2023-02-21T22:28:03.105Z,77.29
2023-02-21T22:30:31.762Z,77.00
2023-02-21T22:32:59.914Z,76.95
2023-02-21T22:35:28.751Z,76.96
2023-02-21T22:37:58.435Z,76.84
2023-02-21T22:40:28.369Z,77.06
2023-02-21T22:42:59.428Z,77.03
2023-02-21T22:45:33.313Z,76.98
2023-02-21T22:48:04.260Z,77.24
2023-02-21T22:50:37.241Z,77.03
2023-02-21T22:53:09.101Z,76.78
2023-02-21T22:55:37.819Z,76.55
2023-02-21T22:58:09.366Z,76.67
2023-02-21T23:00:38.180Z,76.61
2023-02-21T23:03:14.777Z,76.65
2023-02-21T23:05:49.739Z,76.91
2023-02-21T23:08:21.091Z,76.66
2023-02-21T23:10:50.357Z,76.89
2023-02-21T23:13:23.191Z,76.65
2023-02-21T23:15:55.680Z,76.59
2023-02-21T23:18:26.179Z,75.95
2023-02-21T23:20:57.103Z,76.08
2023-02-21T23:23:27.879Z,76.25
2023-02-21T23:26:01.276Z,76.10
2023-02-21T23:28:30.578Z,75.75
2023-02-21T23:30:58.801Z,75.93
2023-02-21T23:33:30.194Z,75.90
2023-02-21T23:35:58.716Z,75.69
2023-02-21T23:38:29.169Z,76.10
2023-02-21T23:40:59.369Z,76.30
2023-02-21T23:43:35.856Z,75.91
2023-02-21T23:46:06.862Z,76.09
2023-02-21T23:48:37.694Z,75.83
2023-02-21T23:51:08.334Z,76.07
2023-02-21T23:53:37.058Z,76.25
2023-02-21T23:56:05.988Z,76.49
2023-02-21T23:58:34.267Z,76.65
